createdAt,value
2023-05-21T00:02:44.994Z,99.9370
2023-05-21T00:03:46.536Z,99.9352
2023-05-21T00:10:51.414Z,99.9798
2023-05-21T00:11:51.875Z,99.9866
2023-05-21T00:13:52.416Z,99.9967
2023-05-21T00:14:53.316Z,99.9975
2023-05-21T00:15:54.364Z,99.9999
2023-05-21T00:16:54.949Z,100.0000
2023-05-21T00:17:56.863Z,99.9996
2023-05-21T00:18:58.087Z,100.0000
2023-05-21T00:19:58.509Z,100.0000
2023-05-21T00:20:58.836Z,100.0000
2023-05-21T00:22:00.032Z,100.0000
2023-05-21T00:25:00.737Z,100.0000
2023-05-21T00:26:01.637Z,100.0000
2023-05-21T00:27:03.130Z,100.0000
2023-05-21T00:28:03.843Z,100.0000
2023-05-21T00:30:04.736Z,100.0000
2023-05-21T00:31:05.712Z,100.0000
2023-05-21T00:32:06.167Z,100.0000
2023-05-21T00:33:06.218Z,100.0000
2023-05-21T00:34:07.821Z,100.0000
2023-05-21T00:35:08.754Z,100.0000
2023-05-21T00:40:12.539Z,100.0000
2023-05-21T00:41:13.461Z,100.0000
2023-05-21T00:42:13.993Z,100.0000
2023-05-21T00:43:15.648Z,100.0000
2023-05-21T00:44:15.895Z,100.0000
2023-05-21T00:45:16.442Z,100.0000
2023-05-21T00:46:17.272Z,100.0000
2023-05-21T00:54:24.241Z,100.0000
2023-05-21T00:55:24.756Z,100.0000
2023-05-21T00:56:24.772Z,100.0000
2023-05-21T00:57:26.608Z,100.0000
2023-05-21T00:58:27.339Z,100.0000
2023-05-21T00:59:27.866Z,100.0000
2023-05-21T01:00:29.596Z,100.0000
2023-05-21T01:02:29.113Z,100.0000
2023-05-21T01:03:30.124Z,100.0000
2023-05-21T01:05:31.731Z,100.0000
2023-05-21T01:06:32.612Z,100.0000
2023-05-21T01:13:35.775Z,100.0000
2023-05-21T01:14:35.887Z,100.0000
2023-05-21T01:15:36.417Z,100.0000
2023-05-21T01:16:37.394Z,100.0000
2023-05-21T01:17:38.018Z,100.0000
2023-05-21T01:18:38.585Z,100.0000
2023-05-21T01:19:39.504Z,100.0000
2023-05-21T01:20:40.557Z,100.0000
2023-05-21T01:21:41.334Z,100.0000
2023-05-21T01:22:41.409Z,100.0000
2023-05-21T01:23:42.299Z,100.0000
2023-05-21T01:25:45.531Z,100.0000
2023-05-21T01:26:46.398Z,100.0000
2023-05-21T01:27:47.273Z,100.0000
2023-05-21T01:28:48.097Z,100.0000
2023-05-21T01:29:48.413Z,100.0000
2023-05-21T01:31:51.187Z,100.0000
2023-05-21T01:33:51.309Z,100.0000
2023-05-21T01:34:51.557Z,100.0000
2023-05-21T01:35:53.525Z,100.0000
2023-05-21T01:36:55.376Z,100.0000
2023-05-21T01:39:57.453Z,100.0000
2023-05-21T01:50:05.805Z,100.0000
2023-05-21T01:53:08.262Z,100.0000
2023-05-21T01:55:08.034Z,100.0000
2023-05-21T01:56:08.798Z,100.0000
2023-05-21T01:58:10.108Z,100.0000
2023-05-21T02:01:13.713Z,100.0000
2023-05-21T02:10:18.970Z,100.0000
2023-05-21T02:11:21.137Z,100.0000
2023-05-21T02:12:23.014Z,100.0000
2023-05-21T02:13:26.050Z,100.0000
2023-05-21T02:14:24.170Z,100.0000
2023-05-21T02:17:25.411Z,99.9999
2023-05-21T02:18:26.384Z,99.9997
2023-05-21T02:23:29.418Z,99.9991
2023-05-21T02:24:29.487Z,99.9999
2023-05-21T02:25:30.732Z,100.0000
2023-05-21T02:26:31.497Z,100.0000
2023-05-21T02:27:31.919Z,100.0000
2023-05-21T02:28:32.885Z,100.0000
2023-05-21T02:29:34.321Z,100.0000
2023-05-21T02:30:35.633Z,100.0000
2023-05-21T02:31:36.138Z,99.9983
2023-05-21T02:32:37.821Z,99.9982
2023-05-21T02:43:43.284Z,100.0000
2023-05-21T02:44:43.870Z,100.0000
2023-05-21T02:45:43.969Z,100.0000
2023-05-21T02:46:44.152Z,100.0000
2023-05-21T02:47:44.655Z,100.0000
2023-05-21T02:48:45.021Z,100.0000
2023-05-21T02:49:46.585Z,100.0000
2023-05-21T02:50:47.860Z,100.0000
2023-05-21T02:51:49.709Z,100.0000
2023-05-21T02:52:49.986Z,100.0000
2023-05-21T02:53:49.996Z,100.0000
2023-05-21T02:54:50.835Z,100.0000
2023-05-21T02:55:51.029Z,100.0000
2023-05-21T02:56:52.024Z,100.0000
2023-05-21T02:57:52.768Z,100.0000
2023-05-21T02:58:52.884Z,100.0000
2023-05-21T02:59:53.873Z,100.0000
2023-05-21T03:00:54.060Z,100.0000
2023-05-21T03:05:56.530Z,100.0000
2023-05-21T03:06:57.767Z,100.0000
2023-05-21T03:07:58.608Z,100.0000
2023-05-21T03:09:00.600Z,100.0000
2023-05-21T03:10:01.139Z,100.0000
2023-05-21T03:11:01.489Z,100.0000
2023-05-21T03:12:02.345Z,100.0000
2023-05-21T03:13:03.263Z,100.0000
2023-05-21T03:14:03.678Z,100.0000
2023-05-21T03:19:36.098Z,100.0000
2023-05-21T03:20:36.312Z,100.0000
2023-05-21T03:21:37.982Z,100.0000
2023-05-21T03:23:38.687Z,100.0000
2023-05-21T03:24:39.683Z,100.0000
2023-05-21T03:26:40.279Z,100.0000
2023-05-21T03:27:41.053Z,100.0000
2023-05-21T03:29:42.624Z,100.0000
2023-05-21T03:41:51.212Z,100.0000
2023-05-21T03:42:52.219Z,100.0000
2023-05-21T03:44:52.879Z,100.0000
2023-05-21T03:45:53.446Z,100.0000
2023-05-21T03:46:54.815Z,100.0000
2023-05-21T03:48:56.010Z,100.0000
2023-05-21T03:49:56.703Z,100.0000
2023-05-21T03:50:56.820Z,100.0000
2023-05-21T03:51:58.374Z,100.0000
2023-05-21T03:53:58.313Z,100.0000
2023-05-21T03:54:58.513Z,100.0000
2023-05-21T03:55:58.775Z,100.0000
2023-05-21T03:57:00.003Z,100.0000
2023-05-21T03:58:00.499Z,100.0000
2023-05-21T03:59:01.309Z,100.0000
2023-05-21T04:00:02.944Z,100.0000
2023-05-21T04:01:04.124Z,100.0000
2023-05-21T04:02:04.966Z,100.0000
2023-05-21T04:03:06.428Z,100.0000
2023-05-21T04:04:07.372Z,100.0000
2023-05-21T04:05:06.619Z,100.0000
2023-05-21T04:06:08.529Z,100.0000
2023-05-21T04:07:10.049Z,100.0000
2023-05-21T04:08:10.593Z,100.0000
2023-05-21T04:09:11.359Z,100.0000
2023-05-21T04:14:14.417Z,100.0000
2023-05-21T04:17:15.086Z,100.0000
2023-05-21T04:18:16.287Z,100.0000
2023-05-21T04:20:16.291Z,100.0000
2023-05-21T04:21:17.260Z,100.0000
2023-05-21T04:23:18.020Z,100.0000
2023-05-21T04:24:18.387Z,100.0000
2023-05-21T04:25:18.601Z,100.0000
2023-05-21T04:26:20.733Z,100.0000
2023-05-21T04:29:24.478Z,100.0000
2023-05-21T04:30:25.901Z,100.0000
2023-05-21T04:35:28.356Z,100.0000
2023-05-21T04:37:29.850Z,100.0000
2023-05-21T04:38:30.215Z,100.0000
2023-05-21T04:43:34.316Z,100.0000
2023-05-21T04:45:33.868Z,100.0000
2023-05-21T04:46:35.424Z,100.0000
2023-05-21T04:47:36.271Z,100.0000
2023-05-21T04:56:40.458Z,100.0000
2023-05-21T04:57:41.653Z,100.0000
2023-05-21T04:58:42.277Z,100.0000
2023-05-21T04:59:42.849Z,100.0000
2023-05-21T05:00:43.988Z,100.0000
2023-05-21T05:01:44.436Z,100.0000
2023-05-21T05:03:45.817Z,100.0000
2023-05-21T05:04:46.274Z,100.0000
2023-05-21T05:05:47.042Z,100.0000
2023-05-21T05:07:49.445Z,99.8833
2023-05-21T05:09:49.996Z,99.5836
2023-05-21T05:10:50.765Z,99.4222
2023-05-21T05:11:50.948Z,99.2682
2023-05-21T05:12:52.079Z,99.1529
2023-05-21T05:19:56.326Z,98.4099
2023-05-21T05:20:58.318Z,98.3429
2023-05-21T05:21:59.272Z,98.3707
2023-05-21T05:22:59.750Z,98.3023
2023-05-21T05:24:01.049Z,98.1909
2023-05-21T05:25:01.751Z,98.1098
2023-05-21T05:27:02.044Z,97.9879
2023-05-21T05:28:03.739Z,97.9497
2023-05-21T05:30:04.256Z,97.8505
2023-05-21T05:31:05.116Z,97.8573
2023-05-21T05:32:06.210Z,97.7954
2023-05-21T05:33:08.317Z,97.6638
2023-05-21T05:34:08.511Z,97.5733
2023-05-21T05:35:08.779Z,97.3780
2023-05-21T05:36:09.373Z,97.1891
2023-05-21T05:37:11.006Z,97.0960
2023-05-21T05:40:13.447Z,96.8152
2023-05-21T05:41:14.101Z,96.5387
2023-05-21T05:42:15.328Z,96.4839
2023-05-21T05:43:16.849Z,96.2957
2023-05-21T05:48:20.907Z,96.0253
2023-05-21T05:49:22.222Z,96.0214
2023-05-21T05:50:22.489Z,96.1042
2023-05-21T05:51:23.181Z,96.0406
2023-05-21T05:52:23.493Z,95.7861
2023-05-21T05:53:24.682Z,95.9299
2023-05-21T05:54:25.135Z,96.0887
2023-05-21T05:55:25.273Z,95.6807
2023-05-21T05:56:25.807Z,95.3447
2023-05-21T05:57:26.067Z,95.2490
2023-05-21T05:58:27.247Z,95.3423
2023-05-21T05:59:27.508Z,95.0687
2023-05-21T06:00:28.841Z,94.8793
2023-05-21T06:01:29.832Z,94.7302
2023-05-21T06:02:30.303Z,94.6047
2023-05-21T06:03:30.539Z,94.4413
2023-05-21T06:07:33.346Z,94.1961
2023-05-21T06:08:36.640Z,93.4230
2023-05-21T06:09:34.796Z,93.7751
2023-05-21T06:10:35.706Z,93.7934
2023-05-21T06:11:35.751Z,93.6401
2023-05-21T06:12:36.891Z,93.6149
2023-05-21T06:13:38.552Z,93.1607
2023-05-21T06:14:38.745Z,93.1690
2023-05-21T06:16:42.403Z,92.8331
2023-05-21T06:21:43.878Z,92.4460
2023-05-21T06:22:43.981Z,92.0255
2023-05-21T06:27:47.508Z,90.6141
2023-05-21T06:28:48.757Z,90.4099
2023-05-21T06:29:48.962Z,89.7859
2023-05-21T06:30:50.488Z,88.4198
2023-05-21T06:31:52.211Z,87.0666
2023-05-21T06:32:52.855Z,88.0759
2023-05-21T06:33:53.496Z,88.2466
2023-05-21T06:34:54.909Z,87.8667
2023-05-21T06:37:57.198Z,88.8713
2023-05-21T06:38:57.301Z,88.1935
2023-05-21T06:39:57.400Z,87.6678
2023-05-21T06:40:58.527Z,87.7003
2023-05-21T06:41:58.680Z,87.3682
2023-05-21T06:43:00.107Z,87.0005
2023-05-21T06:44:01.041Z,87.7441
2023-05-21T06:49:05.261Z,87.7269
2023-05-21T06:51:04.983Z,85.0648
2023-05-21T06:52:06.014Z,84.8804
2023-05-21T06:53:06.882Z,85.1423
2023-05-21T06:54:08.030Z,85.2650
2023-05-21T06:55:08.662Z,85.5498
2023-05-21T06:56:09.245Z,85.9930
2023-05-21T06:57:10.609Z,85.7941
2023-05-21T06:58:12.443Z,85.9174
2023-05-21T07:00:13.839Z,84.6397
2023-05-21T07:01:14.899Z,84.6091
2023-05-21T07:09:19.379Z,85.4271
2023-05-21T07:10:20.188Z,85.5028
2023-05-21T07:11:21.269Z,85.7112
2023-05-21T07:12:22.095Z,84.3833
2023-05-21T07:13:22.728Z,83.9893
2023-05-21T07:15:23.199Z,82.8404
2023-05-21T07:16:23.841Z,83.1447
2023-05-21T07:17:24.117Z,81.5499
2023-05-21T07:18:25.551Z,80.8966
2023-05-21T07:19:26.311Z,78.7100
2023-05-21T07:20:27.422Z,80.3654
2023-05-21T07:21:28.576Z,82.4612
2023-05-21T07:22:30.249Z,83.1105
2023-05-21T07:23:30.384Z,82.5063
2023-05-21T07:24:31.501Z,80.9383
2023-05-21T07:27:33.521Z,80.5567
2023-05-21T07:28:33.903Z,81.6720
2023-05-21T07:29:34.984Z,82.7150
2023-05-21T07:30:35.880Z,82.8689
2023-05-21T07:31:35.982Z,82.2308
2023-05-21T07:32:36.263Z,80.8138
2023-05-21T07:33:37.352Z,78.3683
2023-05-21T07:34:38.254Z,77.8270
2023-05-21T07:35:38.656Z,77.1562
2023-05-21T07:36:40.482Z,77.2439
2023-05-21T07:37:42.076Z,77.2180
2023-05-21T07:38:42.544Z,77.3836
2023-05-21T07:39:43.506Z,78.7227
2023-05-21T07:40:43.941Z,77.7879
2023-05-21T07:41:44.669Z,78.0325
2023-05-21T07:42:44.708Z,76.6205
2023-05-21T07:45:44.793Z,77.5563
2023-05-21T07:46:44.974Z,77.9778
2023-05-21T07:47:45.333Z,78.3542
2023-05-21T07:48:46.175Z,76.8898
2023-05-21T07:50:48.823Z,73.9780
2023-05-21T07:51:49.700Z,77.3951
2023-05-21T07:56:53.401Z,75.8295
2023-05-21T07:57:53.780Z,75.6547
2023-05-21T07:59:55.535Z,77.8764
2023-05-21T08:00:55.997Z,77.0803
2023-05-21T08:01:56.828Z,76.6637
2023-05-21T08:02:58.351Z,76.9324
2023-05-21T08:04:59.730Z,77.9212
2023-05-21T08:05:59.975Z,78.2253
2023-05-21T08:07:00.697Z,77.5665
2023-05-21T08:08:01.519Z,78.2439
2023-05-21T08:09:03.170Z,79.0496
2023-05-21T08:10:04.020Z,78.8415
2023-05-21T08:11:04.388Z,77.3289
2023-05-21T08:12:05.862Z,76.3246
2023-05-21T08:13:06.777Z,77.1276
2023-05-21T08:14:07.533Z,76.5290
2023-05-21T08:15:09.638Z,75.2422
2023-05-21T08:16:10.241Z,74.3603
2023-05-21T08:23:14.100Z,72.3087
2023-05-21T08:26:19.632Z,74.2692
2023-05-21T08:27:21.527Z,73.1436
2023-05-21T08:36:28.678Z,71.2113
2023-05-21T08:37:28.408Z,71.9784
2023-05-21T08:38:30.540Z,71.3306
2023-05-21T08:39:30.077Z,68.6390
2023-05-21T08:40:30.145Z,65.4997
2023-05-21T08:41:31.167Z,69.2486
2023-05-21T08:42:37.005Z,68.0001
2023-05-21T08:43:33.759Z,69.7945
2023-05-21T08:47:46.811Z,68.5814
2023-05-21T08:54:50.289Z,70.0759
2023-05-21T08:55:51.771Z,68.1679
2023-05-21T08:56:53.571Z,69.5933
2023-05-21T09:02:21.736Z,72.2493
2023-05-21T09:04:23.517Z,70.7351
2023-05-21T09:06:24.644Z,72.2058
2023-05-21T09:07:25.056Z,67.4706
2023-05-21T09:08:26.251Z,66.1345
2023-05-21T09:09:28.360Z,65.1484
2023-05-21T09:11:29.058Z,63.0637
2023-05-21T09:17:30.559Z,63.2181
2023-05-21T09:18:31.636Z,60.2789
2023-05-21T09:19:32.226Z,60.0662
2023-05-21T09:20:32.119Z,61.2266
2023-05-21T09:21:32.986Z,62.0584
2023-05-21T09:22:34.078Z,58.0706
2023-05-21T09:23:34.925Z,58.9492
2023-05-21T09:26:34.692Z,62.1300
2023-05-21T09:30:30.058Z,62.9517
2023-05-21T09:32:13.485Z,63.2086
2023-05-21T09:33:13.602Z,59.8894
2023-05-21T09:34:14.300Z,59.5676
2023-05-21T09:35:15.098Z,57.4386
2023-05-21T09:36:15.395Z,56.0455
2023-05-21T09:37:26.551Z,58.4013
2023-05-21T09:38:18.083Z,59.8665
2023-05-21T09:39:18.173Z,59.5414
2023-05-21T09:41:22.324Z,58.8640
2023-05-21T09:46:24.967Z,60.6945
2023-05-21T09:47:25.753Z,59.5180
2023-05-21T09:48:25.606Z,59.5031
2023-05-21T09:49:26.335Z,62.5009
2023-05-21T09:56:37.770Z,61.8866
2023-05-21T09:57:38.198Z,61.5610
2023-05-21T09:58:39.928Z,62.5929
2023-05-21T09:59:40.926Z,64.0761
2023-05-21T10:01:40.977Z,64.8243
2023-05-21T10:02:42.252Z,64.7586
2023-05-21T10:03:42.436Z,64.2670
2023-05-21T10:04:42.756Z,63.1787
2023-05-21T10:05:43.582Z,62.2517
2023-05-21T10:06:44.795Z,60.5951
2023-05-21T10:07:46.474Z,60.2962
2023-05-21T10:08:47.151Z,58.8384
2023-05-21T10:09:48.014Z,60.5554
2023-05-21T10:14:52.152Z,60.1934
2023-05-21T10:17:54.644Z,60.6330
2023-05-21T10:18:54.869Z,62.2796
2023-05-21T10:19:56.190Z,61.9465
2023-05-21T10:20:57.398Z,59.6683
2023-05-21T10:21:57.013Z,59.7038
2023-05-21T10:22:57.963Z,60.7339
2023-05-21T10:28:01.176Z,59.7451
2023-05-21T10:29:01.662Z,58.9023
2023-05-21T10:31:14.057Z,61.7131
2023-05-21T10:32:15.167Z,61.0280
2023-05-21T10:33:16.614Z,57.6570
2023-05-21T10:34:16.818Z,58.2818
2023-05-21T10:35:17.898Z,58.4394
2023-05-21T10:36:18.655Z,59.1104
2023-05-21T10:37:19.545Z,60.9951
2023-05-21T10:38:20.633Z,59.5053
2023-05-21T10:40:27.303Z,57.2394
2023-05-21T10:42:33.256Z,56.4994
2023-05-21T10:43:33.876Z,55.5845
2023-05-21T10:44:35.338Z,56.4296
2023-05-21T10:45:36.209Z,58.0040
2023-05-21T11:00:22.499Z,60.1481
2023-05-21T11:01:22.707Z,60.3397
2023-05-21T11:02:22.873Z,58.9428
2023-05-21T11:03:24.573Z,58.4091
2023-05-21T11:04:24.697Z,59.8714
2023-05-21T11:05:32.736Z,61.7043
2023-05-21T11:06:27.647Z,60.6239
2023-05-21T11:15:52.769Z,58.7144
2023-05-21T11:17:53.848Z,59.0597
2023-05-21T11:18:54.668Z,59.2951
2023-05-21T11:21:57.541Z,60.5763
2023-05-21T11:22:58.546Z,58.3558
2023-05-21T11:24:58.650Z,58.3800
2023-05-21T11:25:59.778Z,59.7167
2023-05-21T11:28:01.231Z,58.3048
2023-05-21T11:29:02.596Z,57.4825
2023-05-21T11:30:03.258Z,58.2475
2023-05-21T11:31:04.027Z,58.4574
2023-05-21T11:32:04.956Z,59.0717
2023-05-21T11:33:05.998Z,57.2912
2023-05-21T11:34:06.850Z,56.9212
2023-05-21T11:35:07.607Z,54.3475
2023-05-21T11:41:13.279Z,53.4794
2023-05-21T11:42:13.677Z,52.4765
2023-05-21T11:43:14.329Z,50.0669
2023-05-21T11:44:14.660Z,49.2557
2023-05-21T11:45:15.521Z,49.7349
2023-05-21T11:46:16.053Z,49.2481
2023-05-21T11:47:17.768Z,52.0514
2023-05-21T11:48:17.918Z,52.5530
2023-05-21T11:50:18.959Z,53.2747
2023-05-21T11:51:19.065Z,55.1790
2023-05-21T11:52:19.599Z,55.4457
2023-05-21T11:53:20.934Z,53.4749
2023-05-21T11:54:21.019Z,52.4831
2023-05-21T11:55:21.625Z,53.6284
2023-05-21T11:56:21.992Z,51.3060
2023-05-21T11:57:22.220Z,53.2438
2023-05-21T11:58:23.549Z,47.3064
2023-05-21T12:01:24.548Z,50.5277
2023-05-21T12:04:27.922Z,47.2206
2023-05-21T12:05:28.313Z,47.4085
2023-05-21T12:10:30.323Z,51.7718
2023-05-21T12:11:30.492Z,48.4200
2023-05-21T12:12:38.877Z,47.1893
2023-05-21T12:13:32.268Z,48.3277
2023-05-21T12:14:32.081Z,49.0508
2023-05-21T12:15:32.655Z,51.0743
2023-05-21T12:16:33.805Z,50.2450
2023-05-21T12:17:34.986Z,51.2569
2023-05-21T12:19:35.888Z,51.9282
2023-05-21T12:20:37.268Z,51.6302
2023-05-21T12:21:37.615Z,52.3827
2023-05-21T12:23:39.611Z,50.3882
2023-05-21T12:24:40.813Z,50.6251
2023-05-21T12:28:43.417Z,50.1393
2023-05-21T12:29:44.498Z,51.7437
2023-05-21T12:32:45.615Z,54.3958
2023-05-21T12:33:45.702Z,51.7776
2023-05-21T12:34:45.874Z,49.9647
2023-05-21T12:35:47.841Z,53.0907
2023-05-21T12:38:49.706Z,51.2516
2023-05-21T12:39:50.718Z,50.7984
2023-05-21T12:40:51.394Z,52.6499
2023-05-21T12:41:51.205Z,53.8410
2023-05-21T12:47:54.193Z,53.3488
2023-05-21T12:48:54.988Z,52.4191
2023-05-21T12:50:06.619Z,55.3221
2023-05-21T12:51:00.498Z,55.0699
2023-05-21T12:52:02.914Z,54.3722
2023-05-21T12:54:04.884Z,53.0977
2023-05-21T12:55:07.528Z,53.6197
2023-05-21T12:56:06.011Z,56.1442
2023-05-21T12:57:06.795Z,55.6910
2023-05-21T12:58:06.830Z,55.4839
2023-05-21T12:59:07.521Z,54.8059
2023-05-21T13:00:08.890Z,54.3189
2023-05-21T13:01:09.908Z,55.2273
2023-05-21T13:02:10.718Z,55.8165
2023-05-21T13:13:21.473Z,56.3844
2023-05-21T13:15:20.767Z,54.7376
2023-05-21T13:16:21.680Z,53.3406
2023-05-21T13:21:23.812Z,56.0228
2023-05-21T13:22:23.797Z,55.6304
2023-05-21T13:23:24.946Z,57.1222
2023-05-21T13:26:27.042Z,56.4685
2023-05-21T13:27:27.975Z,55.4945
2023-05-21T13:29:30.070Z,55.0679
2023-05-21T13:31:31.086Z,56.4555
2023-05-21T13:32:31.879Z,54.4967
2023-05-21T13:33:33.322Z,55.3771
2023-05-21T13:35:33.653Z,53.2237
2023-05-21T13:36:34.878Z,53.6282
2023-05-21T13:38:35.413Z,56.5252
2023-05-21T13:39:35.589Z,57.8469
2023-05-21T13:40:38.864Z,57.5990
2023-05-21T13:41:38.155Z,51.3190
2023-05-21T13:50:44.838Z,51.6351
2023-05-21T13:51:45.464Z,50.6454
2023-05-21T13:52:46.982Z,52.0148
2023-05-21T13:53:48.498Z,52.1529
2023-05-21T13:54:48.644Z,50.7602
2023-05-21T13:55:49.112Z,50.8384
2023-05-21T13:56:50.037Z,49.3856
2023-05-21T13:57:51.498Z,49.9848
2023-05-21T13:58:51.871Z,51.7041
2023-05-21T13:59:52.385Z,51.2525
2023-05-21T14:03:53.727Z,51.7765
2023-05-21T14:05:57.570Z,48.5474
2023-05-21T14:06:57.822Z,49.0642
2023-05-21T14:07:57.376Z,57.2711
2023-05-21T14:08:58.394Z,56.4149
2023-05-21T14:09:58.864Z,49.4485
2023-05-21T14:12:01.666Z,50.6124
2023-05-21T14:13:18.269Z,49.7486
2023-05-21T14:14:06.056Z,48.0505
2023-05-21T14:15:07.066Z,46.8256
2023-05-21T14:16:07.298Z,48.5913
2023-05-21T14:17:09.033Z,49.2102
2023-05-21T14:18:10.908Z,47.6774
2023-05-21T14:25:14.978Z,40.5582
2023-05-21T14:26:15.996Z,40.0973
2023-05-21T14:27:17.108Z,41.8900
2023-05-21T14:28:18.312Z,43.1861
2023-05-21T14:31:19.792Z,45.1513
2023-05-21T14:32:20.184Z,45.7105
2023-05-21T14:33:22.383Z,45.7405
2023-05-21T14:34:24.089Z,44.6521
2023-05-21T14:35:25.566Z,45.0747
2023-05-21T14:37:26.579Z,46.9749
2023-05-21T14:38:27.523Z,47.6482
2023-05-21T14:43:29.770Z,47.3938
2023-05-21T14:45:31.020Z,44.1827
2023-05-21T14:46:32.468Z,44.1874
2023-05-21T14:54:37.179Z,58.6192
2023-05-21T14:55:39.084Z,48.1928
2023-05-21T14:57:39.480Z,52.3008
2023-05-21T14:58:39.610Z,45.9926
2023-05-21T14:59:40.216Z,49.8571
2023-05-21T15:00:41.262Z,49.1194
2023-05-21T15:02:40.354Z,63.0701
2023-05-21T15:03:41.169Z,46.7779
2023-05-21T15:04:42.397Z,45.5763
2023-05-21T15:05:43.181Z,48.9179
2023-05-21T15:06:43.281Z,56.6734
2023-05-21T15:09:47.360Z,62.0781
2023-05-21T15:10:48.670Z,62.1875
2023-05-21T15:11:49.053Z,55.1055
2023-05-21T15:12:49.148Z,61.0967
2023-05-21T15:13:49.523Z,62.3430
2023-05-21T15:14:50.288Z,57.9158
2023-05-21T15:15:50.339Z,59.1510
2023-05-21T15:16:50.936Z,59.2558
2023-05-21T15:19:52.121Z,57.1796
2023-05-21T15:23:52.463Z,48.7038
2023-05-21T15:24:53.366Z,48.2667
2023-05-21T15:25:53.466Z,54.8885
2023-05-21T15:26:54.262Z,53.8666
2023-05-21T15:27:54.330Z,51.8391
2023-05-21T15:42:37.745Z,42.3329
2023-05-21T15:43:38.360Z,42.1046
2023-05-21T15:44:40.164Z,43.5547
2023-05-21T15:45:41.768Z,43.7019
2023-05-21T15:48:46.330Z,45.6986
2023-05-21T15:55:32.912Z,40.5327
2023-05-21T15:57:34.045Z,42.6856
2023-05-21T15:59:46.363Z,42.6119
2023-05-21T16:00:46.874Z,43.1667
2023-05-21T16:01:48.562Z,42.3074
2023-05-21T16:02:49.516Z,42.4137
2023-05-21T16:03:50.464Z,43.1248
2023-05-21T16:04:51.420Z,44.1603
2023-05-21T16:05:51.943Z,45.9437
2023-05-21T16:06:52.726Z,42.4167
2023-05-21T16:07:53.416Z,40.0812
2023-05-21T16:08:53.452Z,42.0384
2023-05-21T16:09:54.910Z,42.1470
2023-05-21T16:10:55.372Z,43.5088
2023-05-21T16:14:59.546Z,42.5970
2023-05-21T16:16:00.835Z,45.7178
2023-05-21T16:17:01.358Z,44.4117
2023-05-21T16:20:03.204Z,46.7374
2023-05-21T16:21:05.011Z,46.2545
2023-05-21T16:22:05.389Z,43.8791
2023-05-21T16:23:05.772Z,43.9759
2023-05-21T16:24:06.071Z,45.7060
2023-05-21T16:27:06.954Z,46.2483
2023-05-21T16:33:11.605Z,50.3797
2023-05-21T16:34:12.036Z,51.5066
2023-05-21T16:35:13.474Z,54.8746
2023-05-21T16:36:16.308Z,52.4576
2023-05-21T16:37:15.740Z,56.9330
2023-05-21T16:38:16.673Z,51.7941
2023-05-21T16:39:17.229Z,55.9576
2023-05-21T16:40:18.247Z,52.8170
2023-05-21T16:41:19.750Z,54.3032
2023-05-21T16:42:20.244Z,52.5578
2023-05-21T16:43:21.346Z,49.6376
2023-05-21T16:44:22.911Z,50.9783
2023-05-21T16:45:23.386Z,51.5894
2023-05-21T16:46:24.582Z,53.1960
2023-05-21T16:48:25.367Z,53.1202
2023-05-21T16:51:27.967Z,46.4128
2023-05-21T16:52:29.350Z,46.8471
2023-05-21T16:53:30.471Z,46.4459
2023-05-21T16:59:34.275Z,51.0100
2023-05-21T17:00:34.372Z,48.6942
2023-05-21T17:01:35.447Z,50.8975
2023-05-21T17:04:36.476Z,49.7258
2023-05-21T17:05:37.260Z,48.5913
2023-05-21T17:06:39.150Z,47.8004
2023-05-21T17:07:40.001Z,47.7548
2023-05-21T17:08:40.288Z,48.5234
2023-05-21T17:09:41.285Z,53.3087
2023-05-21T17:10:43.051Z,54.9151
2023-05-21T17:11:44.170Z,60.5204
2023-05-21T17:13:45.415Z,55.6126
2023-05-21T17:14:45.670Z,56.7435
2023-05-21T17:16:45.993Z,62.3115
2023-05-21T17:17:47.112Z,63.0820
2023-05-21T17:18:47.691Z,64.5869
2023-05-21T17:19:48.103Z,63.5903
2023-05-21T17:20:48.622Z,58.1687
2023-05-21T17:21:48.916Z,63.4983
2023-05-21T17:22:49.780Z,63.4248
2023-05-21T17:23:50.368Z,67.2828
2023-05-21T17:24:50.878Z,65.3334
2023-05-21T17:25:51.105Z,64.2514
2023-05-21T17:26:51.958Z,66.0614
2023-05-21T17:27:52.646Z,62.4457
2023-05-21T17:28:53.172Z,63.6341
2023-05-21T17:29:54.164Z,61.8158
2023-05-21T17:30:55.786Z,64.8753
2023-05-21T17:31:56.928Z,56.2757
2023-05-21T17:32:57.719Z,55.9841
2023-05-21T17:33:59.152Z,61.9504
2023-05-21T17:36:00.417Z,62.4184
2023-05-21T17:37:00.844Z,64.1237
2023-05-21T17:38:01.513Z,64.1639
2023-05-21T17:39:01.693Z,67.1448
2023-05-21T17:40:03.152Z,64.0403
2023-05-21T17:46:07.538Z,67.0000
2023-05-21T17:47:08.925Z,65.2143
2023-05-21T17:48:09.048Z,64.1974
2023-05-21T17:49:09.876Z,67.0961
2023-05-21T17:50:11.098Z,69.4861
2023-05-21T17:51:11.372Z,71.1625
2023-05-21T17:52:11.409Z,70.6755
2023-05-21T17:53:12.515Z,69.4859
2023-05-21T17:54:13.751Z,69.7778
2023-05-21T17:55:14.924Z,68.2714
2023-05-21T17:56:15.949Z,69.2774
2023-05-21T17:59:16.257Z,70.6822
2023-05-21T18:00:17.121Z,70.7637
2023-05-21T18:01:17.115Z,70.5301
2023-05-21T18:02:19.441Z,69.5148
2023-05-21T18:03:20.986Z,72.4549
2023-05-21T18:04:21.281Z,69.0862
2023-05-21T18:09:22.871Z,73.9449
2023-05-21T18:10:24.316Z,73.4604
2023-05-21T18:11:24.436Z,74.0826
2023-05-21T18:13:27.392Z,72.5887
2023-05-21T18:18:29.007Z,72.5957
2023-05-21T18:19:30.876Z,71.3477
2023-05-21T18:20:30.661Z,72.0537
2023-05-21T18:23:32.191Z,70.7693
2023-05-21T18:24:32.766Z,72.7847
2023-05-21T18:25:35.517Z,73.2945
2023-05-21T18:26:36.474Z,73.7939
2023-05-21T18:27:36.886Z,72.9864
2023-05-21T18:28:37.356Z,74.1015
2023-05-21T18:30:39.009Z,73.6743
2023-05-21T18:31:38.981Z,74.1911
2023-05-21T18:35:40.680Z,72.2800
2023-05-21T18:36:41.596Z,70.2496
2023-05-21T18:37:42.506Z,72.6930
2023-05-21T18:40:44.816Z,73.5335
2023-05-21T18:41:45.416Z,72.6923
2023-05-21T18:43:47.363Z,75.0977
2023-05-21T18:44:48.415Z,74.9581
2023-05-21T18:45:49.298Z,76.0647
2023-05-21T18:46:49.824Z,71.4130
2023-05-21T18:47:51.080Z,72.4975
2023-05-21T18:48:51.642Z,73.5486
2023-05-21T18:50:52.876Z,71.7371
2023-05-21T18:51:53.113Z,69.6651
2023-05-21T18:52:55.027Z,72.8447
2023-05-21T18:53:56.028Z,72.4687
2023-05-21T18:54:56.312Z,71.6372
2023-05-21T18:55:56.455Z,72.1570
2023-05-21T19:05:02.698Z,72.7220
2023-05-21T19:06:03.664Z,72.7776
2023-05-21T19:07:03.842Z,73.8381
2023-05-21T19:08:05.470Z,73.1189
2023-05-21T19:09:06.424Z,71.8953
2023-05-21T19:11:07.527Z,73.7079
2023-05-21T19:12:08.130Z,72.7846
2023-05-21T19:13:08.414Z,72.3879
2023-05-21T19:14:09.616Z,74.2762
2023-05-21T19:15:11.408Z,73.0905
2023-05-21T19:17:11.549Z,72.9114
2023-05-21T19:18:12.108Z,73.1718
2023-05-21T19:19:12.739Z,73.6038
2023-05-21T19:20:13.810Z,74.7671
2023-05-21T19:21:14.924Z,74.5800
2023-05-21T19:22:15.510Z,73.8163
2023-05-21T19:23:15.734Z,73.8389
2023-05-21T19:24:16.018Z,74.2888
2023-05-21T19:25:16.302Z,74.6115
2023-05-21T19:26:16.998Z,76.0720
2023-05-21T19:27:18.272Z,75.6486
2023-05-21T19:30:19.225Z,73.8446
2023-05-21T19:31:19.362Z,76.3614
2023-05-21T19:32:20.695Z,75.8759
2023-05-21T19:37:23.178Z,75.0647
2023-05-21T19:40:25.456Z,74.3442
2023-05-21T19:41:25.857Z,74.8417
2023-05-21T19:42:26.944Z,75.8841
2023-05-21T19:43:28.442Z,77.3963
2023-05-21T19:44:28.484Z,76.1673
2023-05-21T19:45:29.365Z,77.1882
2023-05-21T19:46:30.038Z,77.3636
2023-05-21T19:56:34.296Z,79.0154
2023-05-21T19:57:34.578Z,79.9464
2023-05-21T20:02:38.714Z,76.8836
2023-05-21T20:03:39.116Z,77.1033
2023-05-21T20:08:41.991Z,78.7983
2023-05-21T20:09:42.813Z,78.6460
2023-05-21T20:11:44.327Z,79.8327
2023-05-21T20:12:44.439Z,79.7866
2023-05-21T20:13:45.949Z,80.4417
2023-05-21T20:14:47.010Z,80.1220
2023-05-21T20:15:47.368Z,79.7392
2023-05-21T20:16:49.184Z,81.1084
2023-05-21T20:17:50.046Z,80.7866
2023-05-21T20:18:50.934Z,80.1073